sensor_id;sensor_type;location;lat;lon;timestamp;P1;durP1;ratioP1;P2;durP2;ratioP2
76204;SDS011;64986;55.672;37.628;2023-04-03T00:00:08;7.22;;;4.55;;
76204;SDS011;64986;55.672;37.628;2023-04-03T00:02:35;6.88;;;4.28;;
76204;SDS011;64986;55.672;37.628;2023-04-03T00:05:00;6.07;;;4.13;;
76204;SDS011;64986;55.672;37.628;2023-04-03T00:07:26;9.07;;;4.22;;
76204;SDS011;64986;55.672;37.628;2023-04-03T00:09:51;8.43;;;4.80;;
76204;SDS011;64986;55.672;37.628;2023-04-03T00:12:17;7.63;;;4.35;;
76204;SDS011;64986;55.672;37.628;2023-04-03T00:14:42;6.05;;;4.22;;
76204;SDS011;64986;55.672;37.628;2023-04-03T00:17:08;8.13;;;5.18;;
76204;SDS011;64986;55.672;37.628;2023-04-03T00:19:33;6.82;;;4.15;;
76204;SDS011;64986;55.672;37.628;2023-04-03T00:21:59;7.90;;;4.32;;
76204;SDS011;64986;55.672;37.628;2023-04-03T00:24:25;6.70;;;4.28;;
76204;SDS011;64986;55.672;37.628;2023-04-03T00:26:51;6.40;;;4.30;;
76204;SDS011;64986;55.672;37.628;2023-04-03T00:29:16;6.75;;;4.22;;
76204;SDS011;64986;55.672;37.628;2023-04-03T00:31:41;6.97;;;4.05;;
76204;SDS011;64986;55.672;37.628;2023-04-03T00:34:07;8.60;;;4.43;;
76204;SDS011;64986;55.672;37.628;2023-04-03T00:36:32;9.18;;;4.70;;
76204;SDS011;64986;55.672;37.628;2023-04-03T00:38:58;9.27;;;4.60;;
76204;SDS011;64986;55.672;37.628;2023-04-03T00:41:23;8.30;;;4.45;;
76204;SDS011;64986;55.672;37.628;2023-04-03T00:43:50;7.93;;;3.83;;
76204;SDS011;64986;55.672;37.628;2023-04-03T00:46:16;7.05;;;4.97;;
76204;SDS011;64986;55.672;37.628;2023-04-03T00:48:42;8.48;;;4.75;;
76204;SDS011;64986;55.672;37.628;2023-04-03T00:51:12;8.10;;;4.60;;
76204;SDS011;64986;55.672;37.628;2023-04-03T00:53:44;10.00;;;4.55;;
76204;SDS011;64986;55.672;37.628;2023-04-03T00:56:13;7.38;;;4.43;;
76204;SDS011;64986;55.672;37.628;2023-04-03T00:58:47;8.65;;;4.60;;
76204;SDS011;64986;55.672;37.628;2023-04-03T01:01:18;6.38;;;4.03;;
76204;SDS011;64986;55.672;37.628;2023-04-03T01:03:47;7.32;;;4.25;;
76204;SDS011;64986;55.672;37.628;2023-04-03T01:06:13;9.27;;;4.82;;
76204;SDS011;64986;55.672;37.628;2023-04-03T01:08:41;9.93;;;4.88;;
76204;SDS011;64986;55.672;37.628;2023-04-03T01:11:07;7.85;;;4.90;;
76204;SDS011;64986;55.672;37.628;2023-04-03T01:13:33;9.25;;;5.05;;
76204;SDS011;64986;55.672;37.628;2023-04-03T01:16:03;7.57;;;4.20;;
76204;SDS011;64986;55.672;37.628;2023-04-03T01:18:30;7.30;;;4.32;;
76204;SDS011;64986;55.672;37.628;2023-04-03T01:24:05;7.95;;;5.03;;
76204;SDS011;64986;55.672;37.628;2023-04-03T01:26:33;8.15;;;4.57;;
76204;SDS011;64986;55.672;37.628;2023-04-03T01:29:00;7.28;;;4.47;;
76204;SDS011;64986;55.672;37.628;2023-04-03T01:34:10;13.63;;;5.43;;
76204;SDS011;64986;55.672;37.628;2023-04-03T01:36:36;10.32;;;4.70;;
76204;SDS011;64986;55.672;37.628;2023-04-03T01:39:01;9.13;;;4.97;;
76204;SDS011;64986;55.672;37.628;2023-04-03T01:41:27;9.88;;;4.57;;
76204;SDS011;64986;55.672;37.628;2023-04-03T01:43:54;8.45;;;4.75;;
76204;SDS011;64986;55.672;37.628;2023-04-03T01:46:19;5.88;;;4.45;;
76204;SDS011;64986;55.672;37.628;2023-04-03T01:48:46;6.53;;;4.55;;
76204;SDS011;64986;55.672;37.628;2023-04-03T01:51:13;7.80;;;5.13;;
76204;SDS011;64986;55.672;37.628;2023-04-03T01:53:39;5.30;;;3.88;;
76204;SDS011;64986;55.672;37.628;2023-04-03T01:56:05;8.48;;;4.50;;
76204;SDS011;64986;55.672;37.628;2023-04-03T01:58:31;9.20;;;4.72;;
76204;SDS011;64986;55.672;37.628;2023-04-03T02:00:56;9.32;;;5.03;;
76204;SDS011;64986;55.672;37.628;2023-04-03T02:03:22;8.65;;;4.55;;
76204;SDS011;64986;55.672;37.628;2023-04-03T02:05:47;10.05;;;4.72;;
76204;SDS011;64986;55.672;37.628;2023-04-03T02:08:13;8.48;;;5.13;;
76204;SDS011;64986;55.672;37.628;2023-04-03T02:10:39;9.25;;;5.22;;
76204;SDS011;64986;55.672;37.628;2023-04-03T02:13:05;8.95;;;5.60;;
76204;SDS011;64986;55.672;37.628;2023-04-03T02:15:30;8.43;;;5.18;;
76204;SDS011;64986;55.672;37.628;2023-04-03T02:17:56;10.30;;;5.55;;
76204;SDS011;64986;55.672;37.628;2023-04-03T02:20:21;11.43;;;6.32;;
76204;SDS011;64986;55.672;37.628;2023-04-03T02:22:47;9.80;;;6.63;;
76204;SDS011;64986;55.672;37.628;2023-04-03T02:25:13;8.45;;;5.20;;
76204;SDS011;64986;55.672;37.628;2023-04-03T02:27:38;8.60;;;6.05;;
76204;SDS011;64986;55.672;37.628;2023-04-03T02:30:04;10.82;;;6.95;;
76204;SDS011;64986;55.672;37.628;2023-04-03T02:32:31;9.75;;;5.93;;
76204;SDS011;64986;55.672;37.628;2023-04-03T02:34:56;9.10;;;5.60;;
76204;SDS011;64986;55.672;37.628;2023-04-03T02:37:22;9.27;;;6.45;;
76204;SDS011;64986;55.672;37.628;2023-04-03T02:39:48;10.15;;;5.72;;
76204;SDS011;64986;55.672;37.628;2023-04-03T02:42:13;7.45;;;5.25;;
76204;SDS011;64986;55.672;37.628;2023-04-03T02:44:39;10.68;;;6.90;;
76204;SDS011;64986;55.672;37.628;2023-04-03T02:47:05;10.80;;;6.50;;
76204;SDS011;64986;55.672;37.628;2023-04-03T02:49:30;10.88;;;6.65;;
76204;SDS011;64986;55.672;37.628;2023-04-03T02:51:56;9.07;;;6.43;;
76204;SDS011;64986;55.672;37.628;2023-04-03T02:54:22;12.45;;;6.32;;
76204;SDS011;64986;55.672;37.628;2023-04-03T02:56:48;11.15;;;6.95;;
76204;SDS011;64986;55.672;37.628;2023-04-03T02:59:14;10.52;;;6.95;;
76204;SDS011;64986;55.672;37.628;2023-04-03T03:01:39;8.35;;;6.28;;
76204;SDS011;64986;55.672;37.628;2023-04-03T03:04:05;9.75;;;6.00;;
76204;SDS011;64986;55.672;37.628;2023-04-03T03:06:30;10.20;;;7.68;;
76204;SDS011;64986;55.672;37.628;2023-04-03T03:08:56;9.73;;;6.53;;
76204;SDS011;64986;55.672;37.628;2023-04-03T03:11:21;10.68;;;7.07;;
76204;SDS011;64986;55.672;37.628;2023-04-03T03:13:47;13.57;;;7.82;;
76204;SDS011;64986;55.672;37.628;2023-04-03T03:16:12;10.77;;;7.63;;
76204;SDS011;64986;55.672;37.628;2023-04-03T03:18:38;13.63;;;7.22;;
76204;SDS011;64986;55.672;37.628;2023-04-03T03:21:04;13.90;;;6.13;;
76204;SDS011;64986;55.672;37.628;2023-04-03T03:23:30;12.80;;;7.20;;
76204;SDS011;64986;55.672;37.628;2023-04-03T03:25:58;10.10;;;6.43;;
76204;SDS011;64986;55.672;37.628;2023-04-03T03:28:25;10.82;;;6.95;;
76204;SDS011;64986;55.672;37.628;2023-04-03T03:30:51;9.88;;;5.90;;
76204;SDS011;64986;55.672;37.628;2023-04-03T03:33:17;10.93;;;6.82;;
76204;SDS011;64986;55.672;37.628;2023-04-03T03:35:43;14.20;;;9.10;;
76204;SDS011;64986;55.672;37.628;2023-04-03T03:38:09;11.18;;;7.43;;
76204;SDS011;64986;55.672;37.628;2023-04-03T03:40:35;19.02;;;8.73;;
76204;SDS011;64986;55.672;37.628;2023-04-03T03:43:00;13.68;;;8.35;;
76204;SDS011;64986;55.672;37.628;2023-04-03T03:45:26;13.38;;;7.90;;
76204;SDS011;64986;55.672;37.628;2023-04-03T03:47:51;14.10;;;6.72;;
76204;SDS011;64986;55.672;37.628;2023-04-03T03:50:17;12.82;;;7.57;;
76204;SDS011;64986;55.672;37.628;2023-04-03T03:52:42;15.73;;;7.47;;
76204;SDS011;64986;55.672;37.628;2023-04-03T03:55:08;15.75;;;10.38;;
76204;SDS011;64986;55.672;37.628;2023-04-03T03:57:34;11.25;;;7.18;;
76204;SDS011;64986;55.672;37.628;2023-04-03T04:00:00;11.13;;;7.82;;
76204;SDS011;64986;55.672;37.628;2023-04-03T04:02:25;12.43;;;8.82;;
76204;SDS011;64986;55.672;37.628;2023-04-03T04:04:51;18.45;;;8.93;;
76204;SDS011;64986;55.672;37.628;2023-04-03T04:07:16;14.82;;;8.40;;
76204;SDS011;64986;55.672;37.628;2023-04-03T04:09:42;22.90;;;9.68;;
76204;SDS011;64986;55.672;37.628;2023-04-03T04:12:07;19.65;;;9.63;;
76204;SDS011;64986;55.672;37.628;2023-04-03T04:14:33;14.02;;;8.55;;
76204;SDS011;64986;55.672;37.628;2023-04-03T04:16:58;17.27;;;10.07;;
76204;SDS011;64986;55.672;37.628;2023-04-03T04:19:24;15.23;;;9.05;;
76204;SDS011;64986;55.672;37.628;2023-04-03T04:21:49;16.30;;;9.68;;
76204;SDS011;64986;55.672;37.628;2023-04-03T04:24:15;13.88;;;9.15;;
76204;SDS011;64986;55.672;37.628;2023-04-03T04:26:41;13.35;;;8.80;;
76204;SDS011;64986;55.672;37.628;2023-04-03T04:29:08;11.23;;;7.80;;
76204;SDS011;64986;55.672;37.628;2023-04-03T04:31:34;16.95;;;8.85;;
76204;SDS011;64986;55.672;37.628;2023-04-03T04:33:59;15.63;;;10.23;;
76204;SDS011;64986;55.672;37.628;2023-04-03T04:36:25;18.85;;;10.25;;
76204;SDS011;64986;55.672;37.628;2023-04-03T04:38:51;15.48;;;9.38;;
76204;SDS011;64986;55.672;37.628;2023-04-03T04:41:19;15.13;;;8.25;;
76204;SDS011;64986;55.672;37.628;2023-04-03T04:43:47;18.33;;;9.75;;
76204;SDS011;64986;55.672;37.628;2023-04-03T04:46:16;12.40;;;7.70;;
76204;SDS011;64986;55.672;37.628;2023-04-03T04:48:43;22.33;;;9.98;;
76204;SDS011;64986;55.672;37.628;2023-04-03T04:51:09;17.20;;;10.18;;
76204;SDS011;64986;55.672;37.628;2023-04-03T04:53:35;15.15;;;8.10;;
76204;SDS011;64986;55.672;37.628;2023-04-03T04:56:01;15.25;;;9.15;;
76204;SDS011;64986;55.672;37.628;2023-04-03T04:58:26;15.25;;;9.13;;
76204;SDS011;64986;55.672;37.628;2023-04-03T05:01:01;16.05;;;8.40;;
76204;SDS011;64986;55.672;37.628;2023-04-03T05:03:31;15.30;;;7.32;;
76204;SDS011;64986;55.672;37.628;2023-04-03T05:05:57;13.88;;;8.93;;
76204;SDS011;64986;55.672;37.628;2023-04-03T05:08:23;22.27;;;9.18;;
76204;SDS011;64986;55.672;37.628;2023-04-03T05:10:49;16.63;;;8.23;;
76204;SDS011;64986;55.672;37.628;2023-04-03T05:13:15;11.13;;;7.35;;
76204;SDS011;64986;55.672;37.628;2023-04-03T05:15:40;12.68;;;8.23;;
76204;SDS011;64986;55.672;37.628;2023-04-03T05:18:06;16.27;;;7.60;;
76204;SDS011;64986;55.672;37.628;2023-04-03T05:20:32;13.18;;;8.20;;
76204;SDS011;64986;55.672;37.628;2023-04-03T05:22:58;18.67;;;7.90;;
76204;SDS011;64986;55.672;37.628;2023-04-03T05:25:24;11.38;;;7.75;;
76204;SDS011;64986;55.672;37.628;2023-04-03T05:27:50;12.55;;;8.48;;
76204;SDS011;64986;55.672;37.628;2023-04-03T05:30:16;17.38;;;8.98;;
76204;SDS011;64986;55.672;37.628;2023-04-03T05:32:41;13.93;;;8.05;;
76204;SDS011;64986;55.672;37.628;2023-04-03T05:35:07;13.00;;;8.15;;
76204;SDS011;64986;55.672;37.628;2023-04-03T05:37:33;14.77;;;7.72;;
76204;SDS011;64986;55.672;37.628;2023-04-03T05:39:59;13.75;;;7.93;;
76204;SDS011;64986;55.672;37.628;2023-04-03T05:42:25;15.15;;;7.45;;
76204;SDS011;64986;55.672;37.628;2023-04-03T05:44:50;19.20;;;8.90;;
76204;SDS011;64986;55.672;37.628;2023-04-03T05:47:16;18.83;;;8.73;;
76204;SDS011;64986;55.672;37.628;2023-04-03T05:49:43;19.27;;;8.60;;
76204;SDS011;64986;55.672;37.628;2023-04-03T05:52:27;13.55;;;8.50;;
76204;SDS011;64986;55.672;37.628;2023-04-03T05:54:54;14.18;;;7.82;;
76204;SDS011;64986;55.672;37.628;2023-04-03T05:57:20;28.67;;;10.35;;
76204;SDS011;64986;55.672;37.628;2023-04-03T05:59:46;15.90;;;8.75;;
76204;SDS011;64986;55.672;37.628;2023-04-03T06:02:13;14.85;;;9.05;;
76204;SDS011;64986;55.672;37.628;2023-04-03T06:04:43;15.77;;;8.50;;
76204;SDS011;64986;55.672;37.628;2023-04-03T06:07:12;14.90;;;8.68;;
76204;SDS011;64986;55.672;37.628;2023-04-03T06:09:40;17.83;;;7.82;;
76204;SDS011;64986;55.672;37.628;2023-04-03T06:12:06;17.52;;;8.30;;
76204;SDS011;64986;55.672;37.628;2023-04-03T06:14:32;18.85;;;8.85;;
76204;SDS011;64986;55.672;37.628;2023-04-03T06:16:58;20.25;;;9.02;;
76204;SDS011;64986;55.672;37.628;2023-04-03T06:19:24;22.98;;;9.20;;
76204;SDS011;64986;55.672;37.628;2023-04-03T06:21:51;18.02;;;8.07;;
76204;SDS011;64986;55.672;37.628;2023-04-03T06:24:16;19.75;;;7.50;;
76204;SDS011;64986;55.672;37.628;2023-04-03T06:26:43;20.58;;;8.40;;
76204;SDS011;64986;55.672;37.628;2023-04-03T06:29:09;15.20;;;7.55;;
76204;SDS011;64986;55.672;37.628;2023-04-03T06:31:34;16.48;;;7.00;;
76204;SDS011;64986;55.672;37.628;2023-04-03T06:34:01;15.50;;;7.90;;
76204;SDS011;64986;55.672;37.628;2023-04-03T06:36:27;26.60;;;9.48;;
76204;SDS011;64986;55.672;37.628;2023-04-03T06:38:53;20.17;;;8.02;;
76204;SDS011;64986;55.672;37.628;2023-04-03T06:41:19;17.80;;;8.57;;
76204;SDS011;64986;55.672;37.628;2023-04-03T06:43:46;13.75;;;7.72;;
76204;SDS011;64986;55.672;37.628;2023-04-03T06:46:15;12.90;;;7.93;;
76204;SDS011;64986;55.672;37.628;2023-04-03T06:48:43;40.42;;;9.40;;
76204;SDS011;64986;55.672;37.628;2023-04-03T06:51:19;18.40;;;8.57;;
76204;SDS011;64986;55.672;37.628;2023-04-03T06:53:49;19.70;;;8.02;;
76204;SDS011;64986;55.672;37.628;2023-04-03T06:56:16;18.40;;;7.75;;
76204;SDS011;64986;55.672;37.628;2023-04-03T06:58:42;22.30;;;8.23;;
76204;SDS011;64986;55.672;37.628;2023-04-03T07:01:09;21.88;;;7.78;;
76204;SDS011;64986;55.672;37.628;2023-04-03T07:03:36;19.85;;;8.55;;
76204;SDS011;64986;55.672;37.628;2023-04-03T07:06:02;22.25;;;8.35;;
76204;SDS011;64986;55.672;37.628;2023-04-03T07:08:28;32.08;;;9.45;;
76204;SDS011;64986;55.672;37.628;2023-04-03T07:10:54;24.02;;;8.60;;
76204;SDS011;64986;55.672;37.628;2023-04-03T07:13:20;22.92;;;9.38;;
76204;SDS011;64986;55.672;37.628;2023-04-03T07:15:46;19.80;;;8.25;;
76204;SDS011;64986;55.672;37.628;2023-04-03T07:18:11;19.38;;;8.93;;
76204;SDS011;64986;55.672;37.628;2023-04-03T07:20:38;26.50;;;8.75;;
76204;SDS011;64986;55.672;37.628;2023-04-03T07:23:03;22.75;;;9.43;;
76204;SDS011;64986;55.672;37.628;2023-04-03T07:25:29;22.50;;;8.55;;
76204;SDS011;64986;55.672;37.628;2023-04-03T07:27:55;27.63;;;8.95;;
76204;SDS011;64986;55.672;37.628;2023-04-03T07:30:21;28.98;;;8.32;;
76204;SDS011;64986;55.672;37.628;2023-04-03T07:32:47;22.83;;;8.00;;
76204;SDS011;64986;55.672;37.628;2023-04-03T07:35:12;21.52;;;8.35;;
76204;SDS011;64986;55.672;37.628;2023-04-03T07:37:38;31.38;;;9.75;;
76204;SDS011;64986;55.672;37.628;2023-04-03T07:40:04;41.40;;;9.63;;
76204;SDS011;64986;55.672;37.628;2023-04-03T07:42:30;21.50;;;7.55;;
76204;SDS011;64986;55.672;37.628;2023-04-03T07:44:56;22.95;;;7.80;;
76204;SDS011;64986;55.672;37.628;2023-04-03T07:47:22;32.88;;;8.85;;
76204;SDS011;64986;55.672;37.628;2023-04-03T07:49:47;42.55;;;9.13;;
76204;SDS011;64986;55.672;37.628;2023-04-03T07:52:13;22.33;;;7.60;;
76204;SDS011;64986;55.672;37.628;2023-04-03T07:54:40;19.23;;;7.53;;
76204;SDS011;64986;55.672;37.628;2023-04-03T07:57:06;20.67;;;8.93;;
76204;SDS011;64986;55.672;37.628;2023-04-03T07:59:32;34.80;;;9.52;;
76204;SDS011;64986;55.672;37.628;2023-04-03T08:01:57;26.42;;;9.57;;
76204;SDS011;64986;55.672;37.628;2023-04-03T08:04:23;25.20;;;9.00;;
76204;SDS011;64986;55.672;37.628;2023-04-03T08:06:49;17.05;;;8.25;;
76204;SDS011;64986;55.672;37.628;2023-04-03T08:09:15;23.85;;;8.40;;
76204;SDS011;64986;55.672;37.628;2023-04-03T08:11:41;28.08;;;8.98;;
76204;SDS011;64986;55.672;37.628;2023-04-03T08:14:06;20.50;;;7.68;;
76204;SDS011;64986;55.672;37.628;2023-04-03T08:16:32;17.58;;;8.95;;
76204;SDS011;64986;55.672;37.628;2023-04-03T08:18:58;33.53;;;9.00;;
76204;SDS011;64986;55.672;37.628;2023-04-03T08:21:24;33.92;;;9.82;;
76204;SDS011;64986;55.672;37.628;2023-04-03T08:23:50;28.58;;;8.90;;
76204;SDS011;64986;55.672;37.628;2023-04-03T08:26:16;37.15;;;10.15;;
76204;SDS011;64986;55.672;37.628;2023-04-03T08:28:44;25.25;;;10.25;;
76204;SDS011;64986;55.672;37.628;2023-04-03T08:31:12;31.15;;;9.90;;
76204;SDS011;64986;55.672;37.628;2023-04-03T08:33:40;16.08;;;8.93;;
76204;SDS011;64986;55.672;37.628;2023-04-03T08:36:07;18.70;;;8.57;;
76204;SDS011;64986;55.672;37.628;2023-04-03T08:41:11;27.75;;;9.70;;
76204;SDS011;64986;55.672;37.628;2023-04-03T08:49:53;25.77;;;9.73;;
76204;SDS011;64986;55.672;37.628;2023-04-03T08:58:10;24.15;;;9.57;;
76204;SDS011;64986;55.672;37.628;2023-04-03T09:03:29;21.42;;;11.43;;
76204;SDS011;64986;55.672;37.628;2023-04-03T09:16:36;27.75;;;10.15;;
76204;SDS011;64986;55.672;37.628;2023-04-03T09:22:12;28.02;;;9.07;;
76204;SDS011;64986;55.672;37.628;2023-04-03T09:27:38;26.08;;;11.20;;
76204;SDS011;64986;55.672;37.628;2023-04-03T09:30:04;29.40;;;10.30;;
76204;SDS011;64986;55.672;37.628;2023-04-03T09:32:33;20.60;;;9.88;;
76204;SDS011;64986;55.672;37.628;2023-04-03T09:35:04;24.83;;;10.40;;
76204;SDS011;64986;55.672;37.628;2023-04-03T09:37:39;17.90;;;10.02;;
76204;SDS011;64986;55.672;37.628;2023-04-03T09:40:50;20.33;;;9.23;;
76204;SDS011;64986;55.672;37.628;2023-04-03T09:43:43;18.83;;;8.18;;
76204;SDS011;64986;55.672;37.628;2023-04-03T09:45:53;20.83;;;8.65;;
76204;SDS011;64986;55.672;37.628;2023-04-03T09:48:21;15.63;;;8.85;;
76204;SDS011;64986;55.672;37.628;2023-04-03T09:53:39;17.80;;;9.68;;
76204;SDS011;64986;55.672;37.628;2023-04-03T09:58:42;15.95;;;10.80;;
76204;SDS011;64986;55.672;37.628;2023-04-03T10:04:21;17.55;;;9.07;;
76204;SDS011;64986;55.672;37.628;2023-04-03T10:06:51;19.60;;;12.48;;
76204;SDS011;64986;55.672;37.628;2023-04-03T10:09:20;26.92;;;11.18;;
76204;SDS011;64986;55.672;37.628;2023-04-03T10:12:10;23.85;;;13.70;;
76204;SDS011;64986;55.672;37.628;2023-04-03T10:14:40;18.83;;;9.45;;
76204;SDS011;64986;55.672;37.628;2023-04-03T10:17:29;19.65;;;10.27;;
76204;SDS011;64986;55.672;37.628;2023-04-03T10:36:43;14.05;;;8.57;;
76204;SDS011;64986;55.672;37.628;2023-04-03T10:44:45;20.55;;;7.95;;
76204;SDS011;64986;55.672;37.628;2023-04-03T10:58:27;30.77;;;9.52;;
76204;SDS011;64986;55.672;37.628;2023-04-03T11:01:02;19.38;;;8.57;;
76204;SDS011;64986;55.672;37.628;2023-04-03T11:03:35;15.50;;;8.13;;
76204;SDS011;64986;55.672;37.628;2023-04-03T11:06:07;18.73;;;8.25;;
76204;SDS011;64986;55.672;37.628;2023-04-03T11:08:42;19.40;;;8.15;;
76204;SDS011;64986;55.672;37.628;2023-04-03T11:11:16;17.15;;;7.95;;
76204;SDS011;64986;55.672;37.628;2023-04-03T11:13:51;12.02;;;7.20;;
76204;SDS011;64986;55.672;37.628;2023-04-03T11:16:28;29.98;;;9.38;;
76204;SDS011;64986;55.672;37.628;2023-04-03T11:18:58;15.95;;;8.50;;
76204;SDS011;64986;55.672;37.628;2023-04-03T11:21:46;22.35;;;7.50;;
76204;SDS011;64986;55.672;37.628;2023-04-03T11:24:20;17.48;;;7.85;;
76204;SDS011;64986;55.672;37.628;2023-04-03T11:26:49;18.02;;;7.63;;
76204;SDS011;64986;55.672;37.628;2023-04-03T11:29:36;22.75;;;7.45;;
76204;SDS011;64986;55.672;37.628;2023-04-03T11:32:10;20.48;;;7.05;;
76204;SDS011;64986;55.672;37.628;2023-04-03T11:34:57;21.38;;;7.43;;
76204;SDS011;64986;55.672;37.628;2023-04-03T11:42:46;24.73;;;8.43;;
76204;SDS011;64986;55.672;37.628;2023-04-03T11:45:36;18.15;;;9.80;;
76204;SDS011;64986;55.672;37.628;2023-04-03T11:50:45;19.95;;;8.27;;
76204;SDS011;64986;55.672;37.628;2023-04-03T12:05:55;19.55;;;7.45;;
76204;SDS011;64986;55.672;37.628;2023-04-03T12:13:39;15.20;;;7.25;;
76204;SDS011;64986;55.672;37.628;2023-04-03T12:16:27;20.88;;;7.38;;
76204;SDS011;64986;55.672;37.628;2023-04-03T12:18:58;10.02;;;6.28;;
76204;SDS011;64986;55.672;37.628;2023-04-03T12:43:55;14.75;;;6.20;;
76204;SDS011;64986;55.672;37.628;2023-04-03T12:46:16;17.38;;;5.43;;
76204;SDS011;64986;55.672;37.628;2023-04-03T12:51:09;14.88;;;5.78;;
76204;SDS011;64986;55.672;37.628;2023-04-03T12:54:41;11.57;;;6.07;;
76204;SDS011;64986;55.672;37.628;2023-04-03T12:56:51;11.93;;;6.75;;
76204;SDS011;64986;55.672;37.628;2023-04-03T12:59:26;14.82;;;7.25;;
76204;SDS011;64986;55.672;37.628;2023-04-03T13:01:55;13.85;;;7.15;;
76204;SDS011;64986;55.672;37.628;2023-04-03T13:04:29;15.90;;;5.88;;
76204;SDS011;64986;55.672;37.628;2023-04-03T13:06:56;16.77;;;7.30;;
76204;SDS011;64986;55.672;37.628;2023-04-03T13:09:24;15.00;;;6.72;;
76204;SDS011;64986;55.672;37.628;2023-04-03T13:11:58;9.80;;;5.95;;
76204;SDS011;64986;55.672;37.628;2023-04-03T13:14:28;19.45;;;6.75;;
76204;SDS011;64986;55.672;37.628;2023-04-03T13:22:02;17.98;;;4.68;;
76204;SDS011;64986;55.672;37.628;2023-04-03T13:24:31;8.68;;;5.53;;
76204;SDS011;64986;55.672;37.628;2023-04-03T13:27:01;16.23;;;6.10;;
76204;SDS011;64986;55.672;37.628;2023-04-03T13:29:31;12.75;;;5.18;;
76204;SDS011;64986;55.672;37.628;2023-04-03T13:31:59;10.85;;;5.63;;
76204;SDS011;64986;55.672;37.628;2023-04-03T13:34:27;13.73;;;5.28;;
76204;SDS011;64986;55.672;37.628;2023-04-03T13:36:58;18.05;;;7.03;;
76204;SDS011;64986;55.672;37.628;2023-04-03T13:39:27;10.52;;;5.80;;
76204;SDS011;64986;55.672;37.628;2023-04-03T13:42:02;12.70;;;5.65;;
76204;SDS011;64986;55.672;37.628;2023-04-03T13:44:41;9.45;;;4.60;;
76204;SDS011;64986;55.672;37.628;2023-04-03T13:49:39;12.18;;;5.20;;
76204;SDS011;64986;55.672;37.628;2023-04-03T13:52:24;14.27;;;5.32;;
76204;SDS011;64986;55.672;37.628;2023-04-03T13:55:01;11.57;;;5.57;;
76204;SDS011;64986;55.672;37.628;2023-04-03T13:57:56;8.60;;;4.63;;
76204;SDS011;64986;55.672;37.628;2023-04-03T14:00:35;13.65;;;4.55;;
76204;SDS011;64986;55.672;37.628;2023-04-03T14:03:16;11.45;;;4.50;;
76204;SDS011;64986;55.672;37.628;2023-04-03T14:05:44;8.82;;;4.28;;
76204;SDS011;64986;55.672;37.628;2023-04-03T14:08:10;12.10;;;4.80;;
76204;SDS011;64986;55.672;37.628;2023-04-03T14:10:36;16.25;;;5.28;;
76204;SDS011;64986;55.672;37.628;2023-04-03T14:13:02;12.73;;;5.53;;
76204;SDS011;64986;55.672;37.628;2023-04-03T14:15:28;15.50;;;5.50;;
76204;SDS011;64986;55.672;37.628;2023-04-03T14:17:56;22.48;;;6.95;;
76204;SDS011;64986;55.672;37.628;2023-04-03T14:20:23;13.60;;;5.45;;
76204;SDS011;64986;55.672;37.628;2023-04-03T14:22:50;18.65;;;6.65;;
76204;SDS011;64986;55.672;37.628;2023-04-03T14:25:17;14.35;;;6.13;;
76204;SDS011;64986;55.672;37.628;2023-04-03T14:27:44;23.75;;;6.43;;
76204;SDS011;64986;55.672;37.628;2023-04-03T14:30:14;18.77;;;5.53;;
76204;SDS011;64986;55.672;37.628;2023-04-03T14:32:42;18.80;;;6.70;;
76204;SDS011;64986;55.672;37.628;2023-04-03T14:35:08;28.80;;;6.60;;
76204;SDS011;64986;55.672;37.628;2023-04-03T14:37:33;29.42;;;8.30;;
76204;SDS011;64986;55.672;37.628;2023-04-03T14:40:00;29.42;;;7.20;;
76204;SDS011;64986;55.672;37.628;2023-04-03T14:42:36;19.52;;;8.85;;
76204;SDS011;64986;55.672;37.628;2023-04-03T14:45:03;26.40;;;7.53;;
76204;SDS011;64986;55.672;37.628;2023-04-03T14:47:31;22.20;;;6.97;;
76204;SDS011;64986;55.672;37.628;2023-04-03T14:49:58;29.95;;;8.60;;
76204;SDS011;64986;55.672;37.628;2023-04-03T14:52:30;33.88;;;8.95;;
76204;SDS011;64986;55.672;37.628;2023-04-03T14:54:58;20.20;;;8.15;;
76204;SDS011;64986;55.672;37.628;2023-04-03T14:57:26;19.52;;;6.97;;
76204;SDS011;64986;55.672;37.628;2023-04-03T14:59:53;27.88;;;7.85;;
76204;SDS011;64986;55.672;37.628;2023-04-03T15:05:04;31.13;;;7.10;;
76204;SDS011;64986;55.672;37.628;2023-04-03T15:07:34;28.77;;;7.60;;
76204;SDS011;64986;55.672;37.628;2023-04-03T15:10:03;21.15;;;6.95;;
76204;SDS011;64986;55.672;37.628;2023-04-03T15:12:39;23.42;;;8.27;;
76204;SDS011;64986;55.672;37.628;2023-04-03T15:15:05;21.15;;;6.65;;
76204;SDS011;64986;55.672;37.628;2023-04-03T15:17:31;33.40;;;8.35;;
76204;SDS011;64986;55.672;37.628;2023-04-03T15:19:57;17.20;;;6.88;;
76204;SDS011;64986;55.672;37.628;2023-04-03T15:22:23;14.73;;;5.90;;
76204;SDS011;64986;55.672;37.628;2023-04-03T15:24:49;19.00;;;6.35;;
76204;SDS011;64986;55.672;37.628;2023-04-03T15:27:15;19.50;;;6.40;;
76204;SDS011;64986;55.672;37.628;2023-04-03T15:29:41;31.05;;;6.93;;
76204;SDS011;64986;55.672;37.628;2023-04-03T15:32:08;18.30;;;6.38;;
76204;SDS011;64986;55.672;37.628;2023-04-03T15:34:34;14.90;;;6.90;;
76204;SDS011;64986;55.672;37.628;2023-04-03T15:37:00;40.63;;;7.63;;
76204;SDS011;64986;55.672;37.628;2023-04-03T15:39:26;28.48;;;6.13;;
76204;SDS011;64986;55.672;37.628;2023-04-03T15:41:51;22.88;;;5.55;;
76204;SDS011;64986;55.672;37.628;2023-04-03T15:44:18;31.08;;;7.53;;
76204;SDS011;64986;55.672;37.628;2023-04-03T15:46:45;24.02;;;7.10;;
76204;SDS011;64986;55.672;37.628;2023-04-03T15:49:12;29.00;;;6.32;;
76204;SDS011;64986;55.672;37.628;2023-04-03T15:51:38;18.95;;;6.65;;
76204;SDS011;64986;55.672;37.628;2023-04-03T15:54:04;21.48;;;6.43;;
76204;SDS011;64986;55.672;37.628;2023-04-03T15:56:29;27.88;;;8.15;;
76204;SDS011;64986;55.672;37.628;2023-04-03T15:58:55;22.15;;;6.85;;
76204;SDS011;64986;55.672;37.628;2023-04-03T16:01:20;22.88;;;6.55;;
76204;SDS011;64986;55.672;37.628;2023-04-03T16:03:46;38.33;;;7.85;;
76204;SDS011;64986;55.672;37.628;2023-04-03T16:06:13;26.38;;;7.45;;
76204;SDS011;64986;55.672;37.628;2023-04-03T16:08:40;36.33;;;7.70;;
76204;SDS011;64986;55.672;37.628;2023-04-03T16:11:07;32.33;;;8.02;;
76204;SDS011;64986;55.672;37.628;2023-04-03T16:13:33;21.20;;;7.70;;
76204;SDS011;64986;55.672;37.628;2023-04-03T16:15:59;28.35;;;9.38;;
76204;SDS011;64986;55.672;37.628;2023-04-03T16:18:26;25.67;;;10.52;;
76204;SDS011;64986;55.672;37.628;2023-04-03T16:20:53;21.20;;;10.45;;
76204;SDS011;64986;55.672;37.628;2023-04-03T16:23:18;22.75;;;9.95;;
76204;SDS011;64986;55.672;37.628;2023-04-03T16:25:44;33.63;;;10.75;;
76204;SDS011;64986;55.672;37.628;2023-04-03T16:28:11;22.25;;;9.05;;
76204;SDS011;64986;55.672;37.628;2023-04-03T16:30:38;22.40;;;9.52;;
76204;SDS011;64986;55.672;37.628;2023-04-03T16:33:08;25.35;;;9.98;;
76204;SDS011;64986;55.672;37.628;2023-04-03T16:35:35;33.45;;;12.35;;
76204;SDS011;64986;55.672;37.628;2023-04-03T16:38:00;25.60;;;10.57;;
76204;SDS011;64986;55.672;37.628;2023-04-03T16:40:26;28.35;;;9.70;;
76204;SDS011;64986;55.672;37.628;2023-04-03T16:42:51;13.65;;;7.35;;
76204;SDS011;64986;55.672;37.628;2023-04-03T16:45:17;23.05;;;7.68;;
76204;SDS011;64986;55.672;37.628;2023-04-03T16:47:44;17.65;;;6.82;;
76204;SDS011;64986;55.672;37.628;2023-04-03T16:50:09;20.08;;;7.20;;